CheckWX is a tool to help pilots better visualize weather data.  It is not intended as a substitute for an official pre-flight weather briefing.

16:54:47 UTC

EHWO TAF
Woensdrecht Air Base Airport
Bergen Op Zoom, The Netherlands
TAF EHWO 180817Z 1809/1821 VRB04KT CAVOK BECMG 1815/1818 10005KT

Jun-18@
09:00 UTC

Jun-18 @ 09:00 UTC

Jun-18@
15:00 UTC

Jun-18 @ 15:00 UTC

TAF EHWO 180817Z 1809/1821 VRB04KT CAVOK

Expired

Wind
  • Variable at 4 KTS
Conditions
No significant weather
Cloud Levels
  • No significant clouds

Jun-18@
15:00 UTC

Jun-18 @ 15:00 UTC

Jun-18@
21:00 UTC

Jun-18 @ 21:00 UTC

BECMG 1815/1818 10005KT

Becoming

Becoming Conditions expected by Tue, Jun 18, 2019 @ 18:00 UTC

Wind
  • 100° at 5 KTS
Conditions
No significant weather
Cloud Levels
  • No significant clouds